createdAt,value
2018-08-08T00:00:44.997Z,54.40
2018-08-08T00:03:13.452Z,54.50
2018-08-08T00:05:41.840Z,54.70
2018-08-08T00:08:10.387Z,54.90
2018-08-08T00:10:38.696Z,55.30
2018-08-08T00:13:07.256Z,55.20
2018-08-08T00:15:35.657Z,55.20
2018-08-08T00:18:04.076Z,55.00
2018-08-08T00:20:32.507Z,55.20
2018-08-08T00:23:00.873Z,55.10
2018-08-08T00:25:29.372Z,55.00
2018-08-08T00:27:58.008Z,55.10
2018-08-08T00:30:26.337Z,55.00
2018-08-08T00:32:54.757Z,55.00
2018-08-08T00:35:23.180Z,55.00
2018-08-08T00:37:51.584Z,54.90
2018-08-08T00:40:19.956Z,54.80
2018-08-08T00:42:48.408Z,54.90
2018-08-08T00:45:17.537Z,55.00
2018-08-08T00:47:47.021Z,55.20
2018-08-08T00:50:16.232Z,55.20
2018-08-08T00:52:45.004Z,55.30
2018-08-08T00:55:13.406Z,55.40
2018-08-08T00:57:41.996Z,55.50
2018-08-08T01:00:13.447Z,55.50
2018-08-08T01:02:41.821Z,55.50
2018-08-08T01:05:12.341Z,55.60
2018-08-08T01:07:41.892Z,55.50
2018-08-08T01:10:10.623Z,55.50
2018-08-08T01:12:39.232Z,55.80
2018-08-08T01:15:10.976Z,56.10
2018-08-08T01:17:39.448Z,56.00
2018-08-08T01:20:09.692Z,56.00
2018-08-08T01:22:38.252Z,56.00
2018-08-08T01:25:08.640Z,56.60
2018-08-08T01:27:37.069Z,56.20
2018-08-08T01:30:09.388Z,56.10
2018-08-08T01:32:37.884Z,56.30
2018-08-08T01:35:06.903Z,56.40
2018-08-08T01:37:35.328Z,56.60
2018-08-08T01:40:05.075Z,56.70
2018-08-08T01:42:33.435Z,56.80
2018-08-08T01:45:01.844Z,56.80
2018-08-08T01:47:30.225Z,56.90
2018-08-08T01:49:58.660Z,57.20
2018-08-08T01:52:27.096Z,57.20
2018-08-08T01:54:55.561Z,57.20
2018-08-08T01:57:23.944Z,57.20
2018-08-08T01:59:52.296Z,57.20
2018-08-08T02:02:20.704Z,58.10
2018-08-08T02:04:49.092Z,57.70
2018-08-08T02:07:17.788Z,57.80
2018-08-08T02:09:46.180Z,57.80
2018-08-08T02:12:14.544Z,57.90
2018-08-08T02:14:42.869Z,58.00
2018-08-08T02:17:11.248Z,58.10
2018-08-08T02:19:39.584Z,58.00
2018-08-08T02:22:07.945Z,58.00
2018-08-08T02:24:36.301Z,58.00
2018-08-08T02:27:04.601Z,58.00
2018-08-08T02:29:36.148Z,58.20
2018-08-08T02:32:04.510Z,58.20
2018-08-08T02:34:32.769Z,58.50
2018-08-08T02:37:01.112Z,58.80
2018-08-08T02:39:29.362Z,59.00
2018-08-08T02:41:57.672Z,59.00
2018-08-08T02:44:26.122Z,59.00
2018-08-08T02:46:54.431Z,59.40
2018-08-08T02:49:22.890Z,59.60
2018-08-08T02:51:51.233Z,60.30
2018-08-08T02:54:19.561Z,59.80
2018-08-08T02:56:47.883Z,60.00
2018-08-08T02:59:16.160Z,60.00
2018-08-08T03:01:44.433Z,60.20
2018-08-08T03:04:12.892Z,60.30
2018-08-08T03:06:41.223Z,60.50
2018-08-08T03:09:11.003Z,60.80
2018-08-08T03:11:39.372Z,61.00
2018-08-08T03:14:08.276Z,61.30
2018-08-08T03:16:36.750Z,61.40
2018-08-08T03:19:05.112Z,61.40
2018-08-08T03:21:33.683Z,61.30
2018-08-08T03:24:01.976Z,62.00
2018-08-08T03:26:30.233Z,61.80
2018-08-08T03:28:58.549Z,61.90
2018-08-08T03:31:26.821Z,62.20
2018-08-08T03:33:55.168Z,62.30
2018-08-08T03:36:23.543Z,62.50
2018-08-08T03:38:51.791Z,62.70
2018-08-08T03:41:20.109Z,62.80
2018-08-08T03:43:48.516Z,62.90
2018-08-08T03:46:17.102Z,62.90
2018-08-08T03:48:45.380Z,62.90
2018-08-08T03:51:13.656Z,63.10
2018-08-08T03:53:42.025Z,63.50
2018-08-08T03:56:10.340Z,63.50
2018-08-08T03:58:38.920Z,63.60
2018-08-08T04:01:07.335Z,63.60
2018-08-08T04:03:35.659Z,63.70
2018-08-08T04:06:03.962Z,63.70
2018-08-08T04:08:32.226Z,63.80
2018-08-08T04:11:00.817Z,63.90
2018-08-08T04:13:29.129Z,64.00
2018-08-08T04:15:57.445Z,64.00
2018-08-08T04:18:32.377Z,64.00
2018-08-08T04:21:00.679Z,64.10
2018-08-08T04:23:29.065Z,64.30
2018-08-08T04:25:57.536Z,64.40
2018-08-08T04:28:26.017Z,64.60
2018-08-08T04:30:54.385Z,64.80
2018-08-08T04:33:22.764Z,64.70
2018-08-08T04:35:51.228Z,64.90
2018-08-08T04:38:19.511Z,65.20
2018-08-08T04:40:47.928Z,65.40
2018-08-08T04:43:16.297Z,65.40
2018-08-08T04:45:44.748Z,65.30
2018-08-08T04:48:13.733Z,65.20
2018-08-08T04:50:42.124Z,65.20
2018-08-08T04:53:10.600Z,65.30
2018-08-08T04:55:39.115Z,65.40
2018-08-08T04:58:07.424Z,65.50
2018-08-08T05:00:35.656Z,65.40
2018-08-08T05:03:03.989Z,65.50
2018-08-08T05:05:32.317Z,65.50
2018-08-08T05:08:00.642Z,65.50
2018-08-08T05:10:28.939Z,65.20
2018-08-08T05:12:57.294Z,65.10
2018-08-08T05:15:25.561Z,64.90
2018-08-08T05:17:53.885Z,64.80
2018-08-08T05:20:22.247Z,65.00
2018-08-08T05:22:50.523Z,65.40
2018-08-08T05:25:18.866Z,65.70
2018-08-08T05:27:47.509Z,66.00
2018-08-08T05:30:17.702Z,66.00
2018-08-08T05:32:46.283Z,66.10
2018-08-08T05:35:15.889Z,66.10
2018-08-08T05:37:44.268Z,66.40
2018-08-08T05:40:17.349Z,65.70
2018-08-08T05:42:46.312Z,65.50
2018-08-08T05:45:15.100Z,65.70
2018-08-08T05:47:45.190Z,65.70
2018-08-08T05:50:13.608Z,65.60
2018-08-08T05:52:42.496Z,65.00
2018-08-08T05:55:11.983Z,64.50
2018-08-08T05:57:40.332Z,64.70
2018-08-08T06:00:28.075Z,64.70
2018-08-08T06:02:56.544Z,64.90
2018-08-08T06:05:24.841Z,65.70
2018-08-08T06:07:53.553Z,64.90
2018-08-08T06:10:21.828Z,64.80
2018-08-08T06:12:50.170Z,65.10
2018-08-08T06:15:18.934Z,65.10
2018-08-08T06:17:47.187Z,64.70
2018-08-08T06:20:17.959Z,63.90
2018-08-08T06:22:46.954Z,63.80
2018-08-08T06:25:15.437Z,62.70
2018-08-08T06:27:44.246Z,62.20
2018-08-08T06:30:17.468Z,61.90
2018-08-08T06:32:45.900Z,61.80
2018-08-08T06:35:15.048Z,62.40
2018-08-08T06:37:43.336Z,62.20
2018-08-08T06:40:12.303Z,62.10
2018-08-08T06:42:40.573Z,62.10
2018-08-08T06:45:11.554Z,62.10
2018-08-08T06:47:40.743Z,61.90
2018-08-08T06:50:09.331Z,61.40
2018-08-08T06:52:38.267Z,61.50
2018-08-08T06:55:07.608Z,61.60
2018-08-08T06:57:35.881Z,61.60
2018-08-08T07:00:24.977Z,61.40
2018-08-08T07:02:53.224Z,61.30
2018-08-08T07:05:21.553Z,60.90
2018-08-08T07:07:50.476Z,60.30
2018-08-08T07:10:18.798Z,60.80
2018-08-08T07:12:47.049Z,59.70
2018-08-08T07:15:16.452Z,59.30
2018-08-08T07:17:44.857Z,59.00
2018-08-08T07:20:14.495Z,59.00
2018-08-08T07:22:42.796Z,58.70
2018-08-08T07:25:12.820Z,58.30
2018-08-08T07:27:41.185Z,58.00
2018-08-08T07:30:12.443Z,58.10
2018-08-08T07:32:40.737Z,58.20
2018-08-08T07:35:09.825Z,58.00
2018-08-08T07:37:38.244Z,57.60
2018-08-08T07:40:08.213Z,57.60
2018-08-08T07:42:36.696Z,57.60
2018-08-08T07:45:06.745Z,57.60
2018-08-08T07:47:35.229Z,57.50
2018-08-08T07:50:04.377Z,57.00
2018-08-08T07:52:32.616Z,56.70
2018-08-08T07:55:00.981Z,56.50
2018-08-08T07:57:29.357Z,56.30
2018-08-08T07:59:57.738Z,56.40
2018-08-08T08:02:26.061Z,56.00
2018-08-08T08:04:54.305Z,55.60
2018-08-08T08:07:22.648Z,55.30
2018-08-08T08:09:50.949Z,54.70
2018-08-08T08:12:19.325Z,54.20
2018-08-08T08:14:47.589Z,53.90
2018-08-08T08:17:15.889Z,53.90
2018-08-08T08:19:44.648Z,53.40
2018-08-08T08:22:13.124Z,53.00
2018-08-08T08:24:41.377Z,52.70
2018-08-08T08:27:09.640Z,52.50
2018-08-08T08:29:38.090Z,52.30
2018-08-08T08:32:06.386Z,52.10
2018-08-08T08:34:34.681Z,51.50
2018-08-08T08:37:02.958Z,50.90
2018-08-08T08:42:09.900Z,50.40
2018-08-08T08:44:38.120Z,50.30
2018-08-08T08:47:06.337Z,49.80
2018-08-08T08:49:34.632Z,49.30
2018-08-08T08:52:03.013Z,49.40
2018-08-08T08:54:31.461Z,49.10
2018-08-08T08:56:59.709Z,48.50
2018-08-08T08:59:28.221Z,47.90
2018-08-08T09:01:56.584Z,47.60
2018-08-08T09:04:24.869Z,47.30
2018-08-08T09:06:53.533Z,46.80
2018-08-08T09:09:21.764Z,46.50
2018-08-08T09:11:50.029Z,45.40
2018-08-08T09:14:18.301Z,44.80
2018-08-08T09:16:46.553Z,44.60
2018-08-08T09:19:14.830Z,45.00
2018-08-08T09:21:43.093Z,45.60
2018-08-08T09:24:11.384Z,45.30
2018-08-08T09:26:39.633Z,44.80
2018-08-08T09:29:07.845Z,44.40
2018-08-08T09:31:36.132Z,44.20
2018-08-08T09:34:04.380Z,43.70
2018-08-08T09:36:32.749Z,43.20
2018-08-08T09:39:00.973Z,41.80
2018-08-08T09:41:29.240Z,41.00
2018-08-08T09:43:57.916Z,40.40
2018-08-08T09:46:26.163Z,39.90
2018-08-08T09:48:54.889Z,39.10
2018-08-08T09:51:23.246Z,38.30
2018-08-08T09:53:51.477Z,38.10
2018-08-08T09:56:19.731Z,38.30
2018-08-08T09:58:48.098Z,38.90
2018-08-08T10:01:21.769Z,39.00
2018-08-08T10:03:55.374Z,39.60
2018-08-08T10:06:23.552Z,39.90
2018-08-08T10:08:51.774Z,40.30
2018-08-08T10:11:21.032Z,40.80
2018-08-08T10:13:49.341Z,41.50
2018-08-08T10:16:17.773Z,41.20
2018-08-08T10:18:46.112Z,40.90
2018-08-08T10:21:14.488Z,40.80
2018-08-08T10:23:42.876Z,41.00
2018-08-08T10:26:11.481Z,41.00
2018-08-08T10:28:40.426Z,41.40
2018-08-08T10:31:08.827Z,41.40
2018-08-08T10:33:37.455Z,41.00
2018-08-08T10:36:05.976Z,41.10
2018-08-08T10:38:34.275Z,41.10
2018-08-08T10:41:02.709Z,40.90
2018-08-08T10:43:30.960Z,41.20
2018-08-08T10:45:59.522Z,41.50
2018-08-08T10:48:27.898Z,40.60
2018-08-08T10:50:56.413Z,39.70
2018-08-08T10:53:24.761Z,38.70
2018-08-08T10:55:53.165Z,37.40
2018-08-08T10:58:21.435Z,36.70
2018-08-08T11:00:49.773Z,36.20
2018-08-08T11:03:18.122Z,36.00
2018-08-08T11:05:46.446Z,36.20
2018-08-08T11:08:14.600Z,35.30
2018-08-08T11:10:42.903Z,34.90
2018-08-08T11:13:11.180Z,34.60
2018-08-08T11:15:39.605Z,33.80
2018-08-08T11:18:07.929Z,32.90
2018-08-08T11:20:36.232Z,32.20
2018-08-08T11:23:04.528Z,31.00
2018-08-08T11:25:32.815Z,29.90
2018-08-08T11:28:01.232Z,29.40
2018-08-08T11:30:29.636Z,29.00
2018-08-08T11:32:58.093Z,28.90
2018-08-08T11:35:26.437Z,28.50
2018-08-08T11:37:54.716Z,28.00
2018-08-08T11:40:23.681Z,27.80
2018-08-08T11:42:52.283Z,27.50
2018-08-08T11:45:20.530Z,26.90
2018-08-08T11:47:49.044Z,26.60
2018-08-08T11:50:17.365Z,26.70
2018-08-08T11:52:45.717Z,26.60
2018-08-08T11:55:13.970Z,26.70
2018-08-08T11:57:42.658Z,27.30
2018-08-08T12:00:11.041Z,27.80
2018-08-08T12:02:39.350Z,28.30
2018-08-08T12:05:08.719Z,28.60
2018-08-08T12:07:37.036Z,28.80
2018-08-08T12:10:06.757Z,28.90
2018-08-08T12:12:35.133Z,29.00
2018-08-08T12:15:03.740Z,29.10
2018-08-08T12:17:32.044Z,29.20
2018-08-08T12:20:00.435Z,29.40
2018-08-08T12:22:28.708Z,29.20
2018-08-08T12:24:57.121Z,29.00
2018-08-08T12:27:25.377Z,28.80
2018-08-08T12:29:53.793Z,28.60
2018-08-08T12:32:22.060Z,28.30
2018-08-08T12:34:50.542Z,28.40
2018-08-08T12:37:19.591Z,28.60
2018-08-08T12:39:47.900Z,28.70
2018-08-08T12:42:16.400Z,28.70
2018-08-08T12:44:44.868Z,28.80
2018-08-08T12:47:13.155Z,28.50
2018-08-08T12:49:41.421Z,28.10
2018-08-08T12:52:09.943Z,27.80
2018-08-08T12:54:38.373Z,27.60
2018-08-08T12:57:06.696Z,27.40
2018-08-08T12:59:35.112Z,27.10
2018-08-08T13:02:03.544Z,26.60
2018-08-08T13:04:31.845Z,26.20
2018-08-08T13:07:00.216Z,25.90
2018-08-08T13:09:28.515Z,26.30
2018-08-08T13:11:56.798Z,26.50
2018-08-08T13:14:25.081Z,26.30
2018-08-08T13:16:53.395Z,25.90
2018-08-08T13:19:21.652Z,25.80
2018-08-08T13:21:50.144Z,25.40
2018-08-08T13:24:18.517Z,25.20
2018-08-08T13:26:46.948Z,25.10
2018-08-08T13:29:15.189Z,25.20
2018-08-08T13:31:43.462Z,25.30
2018-08-08T13:34:11.785Z,25.60
2018-08-08T13:36:40.349Z,25.80
2018-08-08T13:39:11.322Z,26.10
2018-08-08T13:41:39.868Z,26.40
2018-08-08T13:44:08.662Z,27.00
2018-08-08T13:46:37.177Z,27.50
2018-08-08T13:49:05.780Z,28.00
2018-08-08T13:51:34.601Z,28.10
2018-08-08T13:54:02.859Z,28.20
2018-08-08T13:56:31.242Z,28.40
2018-08-08T13:58:59.502Z,28.30
2018-08-08T14:01:27.790Z,28.00
2018-08-08T14:03:56.053Z,28.20
2018-08-08T14:06:24.351Z,28.30
2018-08-08T14:08:52.759Z,28.30
2018-08-08T14:11:21.169Z,28.50
2018-08-08T14:13:49.530Z,28.70
2018-08-08T14:16:17.845Z,29.10
2018-08-08T14:18:46.120Z,29.60
2018-08-08T14:21:14.400Z,30.20
2018-08-08T14:23:42.662Z,30.90
2018-08-08T14:26:10.948Z,31.20
2018-08-08T14:28:39.336Z,31.40
2018-08-08T14:31:07.712Z,32.00
2018-08-08T14:33:35.992Z,32.60
2018-08-08T14:36:04.244Z,33.20
2018-08-08T14:38:32.572Z,33.60
2018-08-08T14:41:00.848Z,34.00
2018-08-08T14:43:29.094Z,34.40
2018-08-08T14:45:57.456Z,34.80
2018-08-08T14:48:25.849Z,35.10
2018-08-08T14:50:54.245Z,35.30
2018-08-08T14:53:22.504Z,35.70
2018-08-08T14:55:50.852Z,37.00
2018-08-08T14:58:19.169Z,36.30
2018-08-08T15:00:47.496Z,36.30
2018-08-08T15:03:15.836Z,36.70
2018-08-08T15:05:44.202Z,37.10
2018-08-08T15:08:12.428Z,37.50
2018-08-08T15:10:40.725Z,37.70
2018-08-08T15:13:09.061Z,37.60
2018-08-08T15:15:37.304Z,38.60
2018-08-08T15:18:05.583Z,38.40
2018-08-08T15:20:33.829Z,38.80
2018-08-08T15:23:02.126Z,39.10
2018-08-08T15:25:30.436Z,39.30
2018-08-08T15:27:58.822Z,39.50
2018-08-08T15:30:27.081Z,39.50
2018-08-08T15:32:55.348Z,39.30
2018-08-08T15:35:23.637Z,39.40
2018-08-08T15:37:52.026Z,39.50
2018-08-08T15:40:20.356Z,39.80
2018-08-08T15:42:48.724Z,40.00
2018-08-08T15:45:17.168Z,40.40
2018-08-08T15:47:45.625Z,40.80
2018-08-08T15:50:13.896Z,40.90
2018-08-08T15:52:42.169Z,41.30
2018-08-08T15:55:11.457Z,41.60
2018-08-08T15:57:39.720Z,41.90
2018-08-08T16:00:10.592Z,42.00
2018-08-08T16:02:39.042Z,42.10
2018-08-08T16:05:07.404Z,41.90
2018-08-08T16:07:36.188Z,42.00
2018-08-08T16:10:06.040Z,42.20
2018-08-08T16:12:34.293Z,42.00
2018-08-08T16:15:02.770Z,41.90
2018-08-08T16:17:31.141Z,41.80
2018-08-08T16:19:59.520Z,41.90
2018-08-08T16:22:27.897Z,42.00
2018-08-08T16:24:56.322Z,42.40
2018-08-08T16:27:24.713Z,42.70
2018-08-08T16:29:52.995Z,42.90
2018-08-08T16:32:21.386Z,43.30
2018-08-08T16:34:49.620Z,43.40
2018-08-08T16:37:17.898Z,43.40
2018-08-08T16:39:46.162Z,43.40
2018-08-08T16:42:14.480Z,43.40
2018-08-08T16:44:42.740Z,43.50
2018-08-08T16:47:11.065Z,43.80
2018-08-08T16:49:39.389Z,44.10
2018-08-08T16:52:07.876Z,45.50
2018-08-08T16:54:36.172Z,46.70
2018-08-08T16:57:04.511Z,47.80
2018-08-08T16:59:32.716Z,48.50
2018-08-08T17:02:00.984Z,49.00
2018-08-08T17:04:29.339Z,49.90
2018-08-08T17:06:57.749Z,51.00
2018-08-08T17:09:26.029Z,50.80
2018-08-08T17:11:54.349Z,51.30
2018-08-08T17:14:22.722Z,51.50
2018-08-08T17:16:51.004Z,51.90
2018-08-08T17:19:19.358Z,52.30
2018-08-08T17:21:47.621Z,52.90
2018-08-08T17:24:15.889Z,53.10
2018-08-08T17:26:44.188Z,53.30
2018-08-08T17:29:12.438Z,53.60
2018-08-08T17:31:40.812Z,53.80
2018-08-08T17:34:09.252Z,54.10
2018-08-08T17:36:37.584Z,54.40
2018-08-08T17:39:07.586Z,54.70
2018-08-08T17:41:35.924Z,55.00
2018-08-08T17:44:04.377Z,55.50
2018-08-08T17:46:32.668Z,56.30
2018-08-08T17:49:00.896Z,56.70
2018-08-08T17:51:29.205Z,56.80
2018-08-08T17:53:57.456Z,58.00
2018-08-08T17:56:25.783Z,58.60
2018-08-08T17:58:54.364Z,58.40
2018-08-08T18:01:22.691Z,58.60
2018-08-08T18:03:50.969Z,58.80
2018-08-08T18:06:19.395Z,59.10
2018-08-08T18:08:47.728Z,59.30
2018-08-08T18:11:16.088Z,59.40
2018-08-08T18:13:44.441Z,59.60
2018-08-08T18:16:12.890Z,59.70
2018-08-08T18:18:41.142Z,59.90
2018-08-08T18:21:09.496Z,59.80
2018-08-08T18:23:37.935Z,59.80
2018-08-08T18:26:06.208Z,59.90
2018-08-08T18:28:34.501Z,60.20
2018-08-08T18:31:02.777Z,60.60
2018-08-08T18:33:31.141Z,60.80
2018-08-08T18:35:59.474Z,60.90
2018-08-08T18:38:27.815Z,61.10
2018-08-08T18:40:56.209Z,61.30
2018-08-08T18:43:24.495Z,61.40
2018-08-08T18:45:52.847Z,61.50
2018-08-08T18:48:21.165Z,61.50
2018-08-08T18:50:49.482Z,61.60
2018-08-08T18:53:17.908Z,62.00
2018-08-08T18:55:46.157Z,62.20
2018-08-08T18:58:14.463Z,63.50
2018-08-08T19:00:42.720Z,64.50
2018-08-08T19:03:11.857Z,65.10
2018-08-08T19:05:40.153Z,65.70
2018-08-08T19:08:08.444Z,66.30
2018-08-08T19:10:36.739Z,66.80
2018-08-08T19:13:05.024Z,67.20
2018-08-08T19:15:33.300Z,67.40
2018-08-08T19:18:01.569Z,67.70
2018-08-08T19:20:29.935Z,67.90
2018-08-08T19:22:58.326Z,68.30
2018-08-08T19:25:26.588Z,68.60
2018-08-08T19:27:54.880Z,68.80
2018-08-08T19:30:23.168Z,69.00
2018-08-08T19:32:51.438Z,69.20
2018-08-08T19:35:19.710Z,69.50
2018-08-08T19:37:48.065Z,69.60
2018-08-08T19:40:16.341Z,69.90
2018-08-08T19:42:44.693Z,70.20
2018-08-08T19:45:12.970Z,70.40
2018-08-08T19:47:41.244Z,71.50
2018-08-08T19:50:09.492Z,70.90
2018-08-08T19:52:38.026Z,71.50
2018-08-08T19:55:06.485Z,71.60
2018-08-08T19:57:34.799Z,72.10
2018-08-08T20:00:03.092Z,72.30
2018-08-08T20:02:31.366Z,72.80
2018-08-08T20:04:59.620Z,72.90
2018-08-08T20:07:27.876Z,72.90
2018-08-08T20:09:56.168Z,73.20
2018-08-08T20:12:24.455Z,73.50
2018-08-08T20:14:52.732Z,73.70
2018-08-08T20:17:20.996Z,73.90
2018-08-08T20:19:49.304Z,74.20
2018-08-08T20:22:18.589Z,74.40
2018-08-08T20:24:47.440Z,74.70
2018-08-08T20:27:15.748Z,74.70
2018-08-08T20:29:44.006Z,74.50
2018-08-08T20:32:12.805Z,74.20
2018-08-08T20:34:41.382Z,73.80
2018-08-08T20:37:09.668Z,73.70
2018-08-08T20:39:44.547Z,73.50
2018-08-08T20:42:12.857Z,73.40
2018-08-08T20:44:41.255Z,73.00
2018-08-08T20:47:09.520Z,72.80
2018-08-08T20:49:37.758Z,73.40
2018-08-08T20:52:06.548Z,72.30
2018-08-08T20:54:34.820Z,72.30
2018-08-08T20:57:03.100Z,72.30
2018-08-08T20:59:31.338Z,72.30
2018-08-08T21:01:59.684Z,72.30
2018-08-08T21:04:27.984Z,72.20
2018-08-08T21:06:56.554Z,72.30
2018-08-08T21:09:24.922Z,72.40
2018-08-08T21:11:53.305Z,72.40
2018-08-08T21:14:21.645Z,72.40
2018-08-08T21:16:49.936Z,72.10
2018-08-08T21:19:18.341Z,72.00
2018-08-08T21:21:46.661Z,71.90
2018-08-08T21:24:14.922Z,72.00
2018-08-08T21:26:43.281Z,71.50
2018-08-08T21:29:11.580Z,71.50
2018-08-08T21:31:39.870Z,71.40
2018-08-08T21:34:08.232Z,71.40
2018-08-08T21:36:36.784Z,71.70
2018-08-08T21:39:07.652Z,71.70
2018-08-08T21:41:35.916Z,71.80
2018-08-08T21:44:04.224Z,71.90
2018-08-08T21:46:32.599Z,72.00
2018-08-08T21:49:00.932Z,72.20
2018-08-08T21:51:29.220Z,72.30
2018-08-08T21:54:08.916Z,72.40
2018-08-08T21:56:48.396Z,72.70
2018-08-08T21:59:27.776Z,72.80
2018-08-08T22:02:07.440Z,73.00
2018-08-08T22:04:47.116Z,73.20
2018-08-08T22:07:26.527Z,73.50
2018-08-08T22:10:06.146Z,73.50
2018-08-08T22:12:45.737Z,73.80
2018-08-08T22:15:25.373Z,73.90
2018-08-08T22:18:04.940Z,74.10
2018-08-08T22:20:33.213Z,74.50
2018-08-08T22:23:01.490Z,74.50
2018-08-08T22:25:29.783Z,74.70
2018-08-08T22:27:58.165Z,75.00
2018-08-08T22:30:26.462Z,75.30
2018-08-08T22:32:54.960Z,75.50
2018-08-08T22:35:23.210Z,75.70
2018-08-08T22:37:51.565Z,75.80
2018-08-08T22:40:19.821Z,76.20
2018-08-08T22:42:48.124Z,76.30
2018-08-08T22:45:16.380Z,76.40
2018-08-08T22:47:44.668Z,76.50
2018-08-08T22:50:12.937Z,76.70
2018-08-08T22:52:41.212Z,76.80
2018-08-08T22:55:09.637Z,76.90
2018-08-08T22:57:37.873Z,77.20
2018-08-08T23:00:08.085Z,77.30
2018-08-08T23:02:36.476Z,77.60
2018-08-08T23:05:05.052Z,77.60
2018-08-08T23:07:33.349Z,77.60
2018-08-08T23:10:01.608Z,78.00
2018-08-08T23:12:30.385Z,78.10
2018-08-08T23:14:58.693Z,78.40
2018-08-08T23:17:26.925Z,78.70
2018-08-08T23:19:55.267Z,78.90
2018-08-08T23:22:34.727Z,79.00
2018-08-08T23:25:02.967Z,79.00
2018-08-08T23:27:31.217Z,78.90
2018-08-08T23:29:59.581Z,79.60
2018-08-08T23:32:27.862Z,78.80
2018-08-08T23:34:56.125Z,78.70
2018-08-08T23:37:24.424Z,78.70
2018-08-08T23:39:52.743Z,78.60
2018-08-08T23:42:21.019Z,78.60
2018-08-08T23:44:49.355Z,78.60
2018-08-08T23:47:17.642Z,78.40
2018-08-08T23:49:45.915Z,78.30
2018-08-08T23:52:14.253Z,78.20
2018-08-08T23:54:42.479Z,78.20
2018-08-08T23:57:10.746Z,78.20
2018-08-08T23:59:39.057Z,78.20
